sensor_id;sensor_type;location;lat;lon;timestamp;temperature;humidity
28175;SHT30;59417;44.788;10.334;2023-06-10T00:02:16;23.40;70.44
28175;SHT30;59417;44.788;10.334;2023-06-10T00:04:42;23.36;70.32
28175;SHT30;59417;44.788;10.334;2023-06-10T00:07:08;23.36;69.51
28175;SHT30;59417;44.788;10.334;2023-06-10T00:09:35;23.36;68.80
28175;SHT30;59417;44.788;10.334;2023-06-10T00:12:04;23.33;69.10
28175;SHT30;59417;44.788;10.334;2023-06-10T00:14:32;23.26;68.29
28175;SHT30;59417;44.788;10.334;2023-06-10T00:16:58;23.30;68.00
28175;SHT30;59417;44.788;10.334;2023-06-10T00:19:27;23.29;68.19
28175;SHT30;59417;44.788;10.334;2023-06-10T00:21:56;23.27;68.10
28175;SHT30;59417;44.788;10.334;2023-06-10T00:24:25;23.24;68.46
28175;SHT30;59417;44.788;10.334;2023-06-10T00:26:51;23.24;68.23
28175;SHT30;59417;44.788;10.334;2023-06-10T00:29:17;23.24;68.67
28175;SHT30;59417;44.788;10.334;2023-06-10T00:31:45;23.22;68.20
28175;SHT30;59417;44.788;10.334;2023-06-10T00:34:11;23.22;67.46
28175;SHT30;59417;44.788;10.334;2023-06-10T00:36:37;23.13;67.63
28175;SHT30;59417;44.788;10.334;2023-06-10T00:39:05;23.09;67.51
28175;SHT30;59417;44.788;10.334;2023-06-10T00:41:31;23.03;67.97
28175;SHT30;59417;44.788;10.334;2023-06-10T00:43:57;23.04;67.81
28175;SHT30;59417;44.788;10.334;2023-06-10T00:46:23;23.09;68.00
28175;SHT30;59417;44.788;10.334;2023-06-10T00:48:51;23.03;68.19
28175;SHT30;59417;44.788;10.334;2023-06-10T00:51:18;22.99;68.18
28175;SHT30;59417;44.788;10.334;2023-06-10T00:53:47;22.98;68.10
28175;SHT30;59417;44.788;10.334;2023-06-10T00:56:13;22.93;68.47
28175;SHT30;59417;44.788;10.334;2023-06-10T00:58:42;22.95;68.33
28175;SHT30;59417;44.788;10.334;2023-06-10T01:01:08;22.93;68.45
28175;SHT30;59417;44.788;10.334;2023-06-10T01:03:37;22.90;68.91
28175;SHT30;59417;44.788;10.334;2023-06-10T01:09:32;22.95;68.70
28175;SHT30;59417;44.788;10.334;2023-06-10T01:12:13;22.90;69.13
28175;SHT30;59417;44.788;10.334;2023-06-10T01:14:42;22.88;68.89
28175;SHT30;59417;44.788;10.334;2023-06-10T01:17:09;22.85;68.83
28175;SHT30;59417;44.788;10.334;2023-06-10T01:19:36;22.78;69.27
28175;SHT30;59417;44.788;10.334;2023-06-10T01:22:03;22.76;69.55
28175;SHT30;59417;44.788;10.334;2023-06-10T01:24:30;22.78;70.36
28175;SHT30;59417;44.788;10.334;2023-06-10T01:27:01;22.86;69.87
28175;SHT30;59417;44.788;10.334;2023-06-10T01:29:36;22.72;70.85
28175;SHT30;59417;44.788;10.334;2023-06-10T01:32:14;22.68;71.53
28175;SHT30;59417;44.788;10.334;2023-06-10T01:34:43;22.58;72.28
28175;SHT30;59417;44.788;10.334;2023-06-10T01:37:13;22.51;72.58
28175;SHT30;59417;44.788;10.334;2023-06-10T01:39:41;22.48;73.45
28175;SHT30;59417;44.788;10.334;2023-06-10T01:42:11;22.38;73.88
28175;SHT30;59417;44.788;10.334;2023-06-10T01:44:40;22.31;74.12
28175;SHT30;59417;44.788;10.334;2023-06-10T01:47:08;22.38;74.11
28175;SHT30;59417;44.788;10.334;2023-06-10T01:49:34;22.27;74.48
28175;SHT30;59417;44.788;10.334;2023-06-10T01:52:00;22.25;74.76
28175;SHT30;59417;44.788;10.334;2023-06-10T01:54:26;22.24;75.78
28175;SHT30;59417;44.788;10.334;2023-06-10T01:56:52;22.22;76.78
28175;SHT30;59417;44.788;10.334;2023-06-10T01:59:18;22.21;76.79
28175;SHT30;59417;44.788;10.334;2023-06-10T02:01:44;22.25;76.63
28175;SHT30;59417;44.788;10.334;2023-06-10T02:04:10;22.32;75.01
28175;SHT30;59417;44.788;10.334;2023-06-10T02:06:36;22.28;75.23
28175;SHT30;59417;44.788;10.334;2023-06-10T02:09:03;22.31;76.99
28175;SHT30;59417;44.788;10.334;2023-06-10T02:11:29;22.04;78.36
28175;SHT30;59417;44.788;10.334;2023-06-10T02:13:55;21.94;78.93
28175;SHT30;59417;44.788;10.334;2023-06-10T02:16:21;21.96;79.00
28175;SHT30;59417;44.788;10.334;2023-06-10T02:18:48;22.00;78.34
28175;SHT30;59417;44.788;10.334;2023-06-10T02:21:14;22.01;77.40
28175;SHT30;59417;44.788;10.334;2023-06-10T02:23:40;22.00;78.30
28175;SHT30;59417;44.788;10.334;2023-06-10T02:26:06;22.04;78.73
28175;SHT30;59417;44.788;10.334;2023-06-10T02:28:32;22.03;78.97
28175;SHT30;59417;44.788;10.334;2023-06-10T02:30:58;22.01;78.96
28175;SHT30;59417;44.788;10.334;2023-06-10T02:33:25;21.97;79.20
28175;SHT30;59417;44.788;10.334;2023-06-10T02:35:52;22.04;79.18
28175;SHT30;59417;44.788;10.334;2023-06-10T02:38:19;22.01;79.35
28175;SHT30;59417;44.788;10.334;2023-06-10T02:40:44;21.90;79.71
28175;SHT30;59417;44.788;10.334;2023-06-10T02:43:11;21.92;79.98
28175;SHT30;59417;44.788;10.334;2023-06-10T02:45:38;21.87;79.87
28175;SHT30;59417;44.788;10.334;2023-06-10T02:48:04;21.90;79.45
28175;SHT30;59417;44.788;10.334;2023-06-10T02:50:32;21.97;77.34
28175;SHT30;59417;44.788;10.334;2023-06-10T02:53:07;22.06;77.10
28175;SHT30;59417;44.788;10.334;2023-06-10T02:55:36;22.07;76.56
28175;SHT30;59417;44.788;10.334;2023-06-10T02:58:08;21.96;76.39
28175;SHT30;59417;44.788;10.334;2023-06-10T03:00:34;22.00;76.13
28175;SHT30;59417;44.788;10.334;2023-06-10T03:03:00;21.89;76.59
28175;SHT30;59417;44.788;10.334;2023-06-10T03:05:33;21.84;76.73
28175;SHT30;59417;44.788;10.334;2023-06-10T03:08:02;21.84;76.58
28175;SHT30;59417;44.788;10.334;2023-06-10T03:10:30;21.84;76.38
28175;SHT30;59417;44.788;10.334;2023-06-10T03:12:58;21.83;76.33
28175;SHT30;59417;44.788;10.334;2023-06-10T03:15:25;21.81;77.27
28175;SHT30;59417;44.788;10.334;2023-06-10T03:17:51;21.89;77.56
28175;SHT30;59417;44.788;10.334;2023-06-10T03:20:18;21.86;77.36
28175;SHT30;59417;44.788;10.334;2023-06-10T03:22:45;22.04;77.56
28175;SHT30;59417;44.788;10.334;2023-06-10T03:25:12;21.90;77.68
28175;SHT30;59417;44.788;10.334;2023-06-10T03:27:42;21.81;78.26
28175;SHT30;59417;44.788;10.334;2023-06-10T03:30:09;21.84;78.58
28175;SHT30;59417;44.788;10.334;2023-06-10T03:32:37;21.86;78.12
28175;SHT30;59417;44.788;10.334;2023-06-10T03:35:09;21.94;77.96
28175;SHT30;59417;44.788;10.334;2023-06-10T03:37:36;21.80;77.82
28175;SHT30;59417;44.788;10.334;2023-06-10T03:40:03;21.76;77.76
28175;SHT30;59417;44.788;10.334;2023-06-10T03:42:31;21.73;78.46
28175;SHT30;59417;44.788;10.334;2023-06-10T03:44:58;21.77;79.00
28175;SHT30;59417;44.788;10.334;2023-06-10T03:47:24;21.89;79.02
28175;SHT30;59417;44.788;10.334;2023-06-10T03:49:51;21.84;78.65
28175;SHT30;59417;44.788;10.334;2023-06-10T03:52:19;21.83;78.20
28175;SHT30;59417;44.788;10.334;2023-06-10T03:54:45;21.84;78.01
28175;SHT30;59417;44.788;10.334;2023-06-10T03:57:11;21.86;78.02
28175;SHT30;59417;44.788;10.334;2023-06-10T03:59:37;21.84;79.13
28175;SHT30;59417;44.788;10.334;2023-06-10T04:02:03;21.80;79.19
28175;SHT30;59417;44.788;10.334;2023-06-10T04:04:30;21.77;79.55
28175;SHT30;59417;44.788;10.334;2023-06-10T04:06:57;21.69;79.48
28175;SHT30;59417;44.788;10.334;2023-06-10T04:09:23;21.60;79.30
28175;SHT30;59417;44.788;10.334;2023-06-10T04:11:49;21.65;79.38
28175;SHT30;59417;44.788;10.334;2023-06-10T04:14:15;21.65;79.72
28175;SHT30;59417;44.788;10.334;2023-06-10T04:16:42;21.65;80.17
28175;SHT30;59417;44.788;10.334;2023-06-10T04:19:08;21.73;80.22
28175;SHT30;59417;44.788;10.334;2023-06-10T04:21:37;21.74;80.03
28175;SHT30;59417;44.788;10.334;2023-06-10T04:24:03;21.76;80.03
28175;SHT30;59417;44.788;10.334;2023-06-10T04:26:31;21.65;80.01
28175;SHT30;59417;44.788;10.334;2023-06-10T04:28:57;21.71;80.13
28175;SHT30;59417;44.788;10.334;2023-06-10T04:31:23;21.77;79.55
28175;SHT30;59417;44.788;10.334;2023-06-10T04:33:49;21.74;78.99
28175;SHT30;59417;44.788;10.334;2023-06-10T04:36:15;21.76;78.45
28175;SHT30;59417;44.788;10.334;2023-06-10T04:38:41;21.81;78.56
28175;SHT30;59417;44.788;10.334;2023-06-10T04:41:07;21.83;78.85
28175;SHT30;59417;44.788;10.334;2023-06-10T04:43:34;21.90;78.32
28175;SHT30;59417;44.788;10.334;2023-06-10T04:46:00;21.93;78.08
28175;SHT30;59417;44.788;10.334;2023-06-10T04:48:28;21.97;78.46
28175;SHT30;59417;44.788;10.334;2023-06-10T04:50:54;21.92;78.96
28175;SHT30;59417;44.788;10.334;2023-06-10T04:53:22;21.89;79.04
28175;SHT30;59417;44.788;10.334;2023-06-10T04:55:49;21.92;78.72
28175;SHT30;59417;44.788;10.334;2023-06-10T04:58:15;21.83;79.09
28175;SHT30;59417;44.788;10.334;2023-06-10T05:00:41;21.92;78.86
28175;SHT30;59417;44.788;10.334;2023-06-10T05:03:07;21.92;78.85
28175;SHT30;59417;44.788;10.334;2023-06-10T05:05:33;22.00;78.32
28175;SHT30;59417;44.788;10.334;2023-06-10T05:07:59;22.04;77.61
28175;SHT30;59417;44.788;10.334;2023-06-10T05:10:25;21.93;78.03
28175;SHT30;59417;44.788;10.334;2023-06-10T05:12:51;21.86;78.56
28175;SHT30;59417;44.788;10.334;2023-06-10T05:15:17;21.83;79.08
28175;SHT30;59417;44.788;10.334;2023-06-10T05:17:43;21.77;79.20
28175;SHT30;59417;44.788;10.334;2023-06-10T05:20:10;21.78;79.15
28175;SHT30;59417;44.788;10.334;2023-06-10T05:22:36;21.90;78.80
28175;SHT30;59417;44.788;10.334;2023-06-10T05:25:03;21.89;78.67
28175;SHT30;59417;44.788;10.334;2023-06-10T05:27:29;21.96;78.47
28175;SHT30;59417;44.788;10.334;2023-06-10T05:29:55;21.96;78.48
28175;SHT30;59417;44.788;10.334;2023-06-10T05:32:22;21.94;78.61
28175;SHT30;59417;44.788;10.334;2023-06-10T05:34:47;21.98;78.44
28175;SHT30;59417;44.788;10.334;2023-06-10T05:37:13;21.98;79.49
28175;SHT30;59417;44.788;10.334;2023-06-10T05:39:40;22.08;78.41
28175;SHT30;59417;44.788;10.334;2023-06-10T05:42:07;22.13;78.46
28175;SHT30;59417;44.788;10.334;2023-06-10T05:44:33;21.96;78.23
28175;SHT30;59417;44.788;10.334;2023-06-10T05:46:59;22.06;77.85
28175;SHT30;59417;44.788;10.334;2023-06-10T05:49:25;21.93;78.00
28175;SHT30;59417;44.788;10.334;2023-06-10T05:51:51;21.92;78.86
28175;SHT30;59417;44.788;10.334;2023-06-10T05:54:18;21.87;78.50
28175;SHT30;59417;44.788;10.334;2023-06-10T05:56:45;21.96;76.94
28175;SHT30;59417;44.788;10.334;2023-06-10T05:59:11;22.01;76.02
28175;SHT30;59417;44.788;10.334;2023-06-10T06:01:37;22.01;75.76
28175;SHT30;59417;44.788;10.334;2023-06-10T06:04:03;22.00;75.58
28175;SHT30;59417;44.788;10.334;2023-06-10T06:06:38;22.06;74.09
28175;SHT30;59417;44.788;10.334;2023-06-10T06:09:36;22.03;75.42
28175;SHT30;59417;44.788;10.334;2023-06-10T06:21:15;22.14;72.45
28175;SHT30;59417;44.788;10.334;2023-06-10T06:23:40;22.14;71.92
28175;SHT30;59417;44.788;10.334;2023-06-10T06:26:08;22.03;73.52
28175;SHT30;59417;44.788;10.334;2023-06-10T06:28:42;22.04;71.89
28175;SHT30;59417;44.788;10.334;2023-06-10T06:31:14;21.94;74.81
28175;SHT30;59417;44.788;10.334;2023-06-10T06:33:41;21.97;72.55
28175;SHT30;59417;44.788;10.334;2023-06-10T06:36:07;21.94;73.98
28175;SHT30;59417;44.788;10.334;2023-06-10T06:38:36;21.74;75.00
28175;SHT30;59417;44.788;10.334;2023-06-10T06:41:03;21.84;75.13
28175;SHT30;59417;44.788;10.334;2023-06-10T06:43:31;21.81;74.75
28175;SHT30;59417;44.788;10.334;2023-06-10T06:46:12;21.83;73.99
28175;SHT30;59417;44.788;10.334;2023-06-10T06:48:38;21.78;73.50
28175;SHT30;59417;44.788;10.334;2023-06-10T06:51:03;21.67;74.56
28175;SHT30;59417;44.788;10.334;2023-06-10T06:53:29;21.65;74.76
28175;SHT30;59417;44.788;10.334;2023-06-10T06:55:55;21.66;74.22
28175;SHT30;59417;44.788;10.334;2023-06-10T06:58:21;21.69;73.12
28175;SHT30;59417;44.788;10.334;2023-06-10T07:00:47;21.57;74.36
28175;SHT30;59417;44.788;10.334;2023-06-10T07:03:13;21.53;75.21
28175;SHT30;59417;44.788;10.334;2023-06-10T07:05:42;21.52;74.73
28175;SHT30;59417;44.788;10.334;2023-06-10T07:08:08;21.46;75.66
28175;SHT30;59417;44.788;10.334;2023-06-10T07:10:34;21.49;75.85
28175;SHT30;59417;44.788;10.334;2023-06-10T07:13:00;21.36;76.85
28175;SHT30;59417;44.788;10.334;2023-06-10T07:15:26;21.33;76.96
28175;SHT30;59417;44.788;10.334;2023-06-10T07:17:52;21.33;76.30
28175;SHT30;59417;44.788;10.334;2023-06-10T07:20:18;21.23;77.23
28175;SHT30;59417;44.788;10.334;2023-06-10T07:22:44;21.18;76.34
28175;SHT30;59417;44.788;10.334;2023-06-10T07:25:10;21.20;77.30
28175;SHT30;59417;44.788;10.334;2023-06-10T07:27:36;21.16;76.58
28175;SHT30;59417;44.788;10.334;2023-06-10T07:30:04;21.19;77.09
28175;SHT30;59417;44.788;10.334;2023-06-10T07:32:32;21.14;77.79
28175;SHT30;59417;44.788;10.334;2023-06-10T07:35:00;21.06;79.97
28175;SHT30;59417;44.788;10.334;2023-06-10T07:37:26;21.06;81.04
28175;SHT30;59417;44.788;10.334;2023-06-10T07:39:52;21.08;79.70
28175;SHT30;59417;44.788;10.334;2023-06-10T07:42:18;21.05;80.34
28175;SHT30;59417;44.788;10.334;2023-06-10T07:44:44;21.11;79.09
28175;SHT30;59417;44.788;10.334;2023-06-10T07:47:10;21.15;79.21
28175;SHT30;59417;44.788;10.334;2023-06-10T07:49:39;21.14;79.11
28175;SHT30;59417;44.788;10.334;2023-06-10T07:52:06;20.95;80.26
28175;SHT30;59417;44.788;10.334;2023-06-10T07:54:32;20.91;80.46
28175;SHT30;59417;44.788;10.334;2023-06-10T07:56:58;21.01;80.27
28175;SHT30;59417;44.788;10.334;2023-06-10T07:59:26;21.02;82.17
28175;SHT30;59417;44.788;10.334;2023-06-10T08:01:53;21.15;81.43
28175;SHT30;59417;44.788;10.334;2023-06-10T08:04:18;21.14;80.90
28175;SHT30;59417;44.788;10.334;2023-06-10T08:06:44;21.22;81.41
28175;SHT30;59417;44.788;10.334;2023-06-10T08:09:10;21.06;80.90
28175;SHT30;59417;44.788;10.334;2023-06-10T08:11:36;21.02;81.32
28175;SHT30;59417;44.788;10.334;2023-06-10T08:14:02;20.95;81.34
28175;SHT30;59417;44.788;10.334;2023-06-10T08:16:30;21.08;80.04
28175;SHT30;59417;44.788;10.334;2023-06-10T08:19:11;21.08;79.84
28175;SHT30;59417;44.788;10.334;2023-06-10T08:21:37;20.99;80.13
28175;SHT30;59417;44.788;10.334;2023-06-10T08:24:06;20.99;80.90
28175;SHT30;59417;44.788;10.334;2023-06-10T08:26:32;20.95;80.81
28175;SHT30;59417;44.788;10.334;2023-06-10T08:28:57;20.99;81.00
28175;SHT30;59417;44.788;10.334;2023-06-10T08:31:23;21.04;82.29
28175;SHT30;59417;44.788;10.334;2023-06-10T08:33:49;21.04;82.01
28175;SHT30;59417;44.788;10.334;2023-06-10T08:36:15;20.91;82.30
28175;SHT30;59417;44.788;10.334;2023-06-10T08:38:41;20.90;82.60
28175;SHT30;59417;44.788;10.334;2023-06-10T08:41:09;20.90;82.95
28175;SHT30;59417;44.788;10.334;2023-06-10T08:44:29;20.95;82.68
28175;SHT30;59417;44.788;10.334;2023-06-10T08:46:31;21.05;81.55
28175;SHT30;59417;44.788;10.334;2023-06-10T08:49:02;21.11;80.64
28175;SHT30;59417;44.788;10.334;2023-06-10T08:51:29;20.92;81.17
28175;SHT30;59417;44.788;10.334;2023-06-10T08:54:09;20.85;81.83
28175;SHT30;59417;44.788;10.334;2023-06-10T08:56:39;20.96;81.62
28175;SHT30;59417;44.788;10.334;2023-06-10T08:59:05;21.02;81.28
28175;SHT30;59417;44.788;10.334;2023-06-10T09:01:32;21.05;80.63
28175;SHT30;59417;44.788;10.334;2023-06-10T09:03:59;20.96;80.67
28175;SHT30;59417;44.788;10.334;2023-06-10T09:06:25;20.95;81.56
28175;SHT30;59417;44.788;10.334;2023-06-10T09:08:52;20.92;81.86
28175;SHT30;59417;44.788;10.334;2023-06-10T09:11:18;20.99;76.97
28175;SHT30;59417;44.788;10.334;2023-06-10T09:13:43;20.95;78.16
28175;SHT30;59417;44.788;10.334;2023-06-10T09:16:09;20.91;78.00
28175;SHT30;59417;44.788;10.334;2023-06-10T09:18:37;20.92;79.22
28175;SHT30;59417;44.788;10.334;2023-06-10T09:21:05;21.04;79.93
28175;SHT30;59417;44.788;10.334;2023-06-10T09:23:31;21.14;80.93
28175;SHT30;59417;44.788;10.334;2023-06-10T09:25:57;21.11;80.71
28175;SHT30;59417;44.788;10.334;2023-06-10T09:28:26;21.23;80.25
28175;SHT30;59417;44.788;10.334;2023-06-10T09:31:02;21.42;80.02
28175;SHT30;59417;44.788;10.334;2023-06-10T09:33:29;21.41;79.52
28175;SHT30;59417;44.788;10.334;2023-06-10T09:35:55;21.26;79.67
28175;SHT30;59417;44.788;10.334;2023-06-10T09:38:22;21.43;78.96
28175;SHT30;59417;44.788;10.334;2023-06-10T09:40:50;21.38;79.42
28175;SHT30;59417;44.788;10.334;2023-06-10T09:43:16;21.39;80.70
28175;SHT30;59417;44.788;10.334;2023-06-10T09:45:42;21.49;79.80
28175;SHT30;59417;44.788;10.334;2023-06-10T09:48:09;21.57;79.51
28175;SHT30;59417;44.788;10.334;2023-06-10T09:50:42;21.67;79.09
28175;SHT30;59417;44.788;10.334;2023-06-10T09:53:12;21.57;79.86
28175;SHT30;59417;44.788;10.334;2023-06-10T09:55:38;21.57;80.66
28175;SHT30;59417;44.788;10.334;2023-06-10T09:58:04;21.56;80.54
28175;SHT30;59417;44.788;10.334;2023-06-10T10:00:52;21.77;80.92
28175;SHT30;59417;44.788;10.334;2023-06-10T10:03:24;21.62;80.07
28175;SHT30;59417;44.788;10.334;2023-06-10T10:05:58;21.67;80.02
28175;SHT30;59417;44.788;10.334;2023-06-10T10:08:27;21.76;79.09
28175;SHT30;59417;44.788;10.334;2023-06-10T10:10:56;21.70;79.84
28175;SHT30;59417;44.788;10.334;2023-06-10T10:13:22;21.76;80.46
28175;SHT30;59417;44.788;10.334;2023-06-10T10:15:49;21.77;81.27
28175;SHT30;59417;44.788;10.334;2023-06-10T10:18:17;21.86;81.74
28175;SHT30;59417;44.788;10.334;2023-06-10T10:20:51;21.90;81.81
28175;SHT30;59417;44.788;10.334;2023-06-10T10:23:34;21.94;82.15
28175;SHT30;59417;44.788;10.334;2023-06-10T10:26:04;21.98;82.26
28175;SHT30;59417;44.788;10.334;2023-06-10T10:28:46;22.07;82.09
28175;SHT30;59417;44.788;10.334;2023-06-10T10:31:16;22.04;81.43
28175;SHT30;59417;44.788;10.334;2023-06-10T10:34:00;22.06;81.16
28175;SHT30;59417;44.788;10.334;2023-06-10T10:36:28;22.00;81.84
28175;SHT30;59417;44.788;10.334;2023-06-10T10:38:54;22.04;81.81
28175;SHT30;59417;44.788;10.334;2023-06-10T10:41:20;22.03;82.36
28175;SHT30;59417;44.788;10.334;2023-06-10T10:43:47;22.14;82.70
28175;SHT30;59417;44.788;10.334;2023-06-10T10:46:15;22.21;82.05
28175;SHT30;59417;44.788;10.334;2023-06-10T10:48:42;22.22;82.33
28175;SHT30;59417;44.788;10.334;2023-06-10T10:51:08;22.25;81.93
28175;SHT30;59417;44.788;10.334;2023-06-10T10:53:37;22.22;82.20
28175;SHT30;59417;44.788;10.334;2023-06-10T10:58:33;22.21;81.58
28175;SHT30;59417;44.788;10.334;2023-06-10T11:00:59;22.32;80.93
28175;SHT30;59417;44.788;10.334;2023-06-10T11:03:29;22.42;79.08
28175;SHT30;59417;44.788;10.334;2023-06-10T11:05:58;22.25;80.41
28175;SHT30;59417;44.788;10.334;2023-06-10T11:10:59;22.44;80.37
28175;SHT30;59417;44.788;10.334;2023-06-10T11:13:26;22.47;80.56
28175;SHT30;59417;44.788;10.334;2023-06-10T11:15:57;22.54;80.42
28175;SHT30;59417;44.788;10.334;2023-06-10T11:18:24;22.58;80.18
28175;SHT30;59417;44.788;10.334;2023-06-10T11:20:56;22.52;80.56
28175;SHT30;59417;44.788;10.334;2023-06-10T11:28:39;22.80;80.69
28175;SHT30;59417;44.788;10.334;2023-06-10T11:31:06;22.82;79.93
28175;SHT30;59417;44.788;10.334;2023-06-10T11:33:40;22.82;78.68
28175;SHT30;59417;44.788;10.334;2023-06-10T11:36:07;22.59;79.12
28175;SHT30;59417;44.788;10.334;2023-06-10T11:38:35;22.85;79.76
28175;SHT30;59417;44.788;10.334;2023-06-10T11:41:02;22.85;79.49
28175;SHT30;59417;44.788;10.334;2023-06-10T11:43:31;22.95;79.06
28175;SHT30;59417;44.788;10.334;2023-06-10T11:45:57;23.06;79.02
28175;SHT30;59417;44.788;10.334;2023-06-10T11:48:23;23.34;79.33
28175;SHT30;59417;44.788;10.334;2023-06-10T11:50:49;23.68;78.02
28175;SHT30;59417;44.788;10.334;2023-06-10T11:53:17;24.08;76.67
28175;SHT30;59417;44.788;10.334;2023-06-10T11:55:45;24.08;74.54
28175;SHT30;59417;44.788;10.334;2023-06-10T11:58:21;23.75;75.46
28175;SHT30;59417;44.788;10.334;2023-06-10T12:00:55;23.88;76.00
28175;SHT30;59417;44.788;10.334;2023-06-10T12:03:24;23.75;75.12
28175;SHT30;59417;44.788;10.334;2023-06-10T12:06:01;23.61;75.82
28175;SHT30;59417;44.788;10.334;2023-06-10T12:08:28;23.53;76.94
28175;SHT30;59417;44.788;10.334;2023-06-10T12:10:55;23.57;75.84
28175;SHT30;59417;44.788;10.334;2023-06-10T12:13:22;23.53;75.50
28175;SHT30;59417;44.788;10.334;2023-06-10T12:15:49;23.57;75.93
28175;SHT30;59417;44.788;10.334;2023-06-10T12:18:24;23.51;75.90
28175;SHT30;59417;44.788;10.334;2023-06-10T12:20:51;23.67;75.09
28175;SHT30;59417;44.788;10.334;2023-06-10T12:23:18;23.77;74.15
28175;SHT30;59417;44.788;10.334;2023-06-10T12:25:51;23.70;74.34
28175;SHT30;59417;44.788;10.334;2023-06-10T12:28:21;23.70;73.86
28175;SHT30;59417;44.788;10.334;2023-06-10T12:30:50;23.65;74.78
28175;SHT30;59417;44.788;10.334;2023-06-10T12:33:21;23.78;75.05
28175;SHT30;59417;44.788;10.334;2023-06-10T12:35:48;23.78;74.17
28175;SHT30;59417;44.788;10.334;2023-06-10T12:38:21;23.88;74.61
28175;SHT30;59417;44.788;10.334;2023-06-10T12:40:48;23.82;75.36
28175;SHT30;59417;44.788;10.334;2023-06-10T12:43:27;23.80;77.20
28175;SHT30;59417;44.788;10.334;2023-06-10T12:45:54;23.74;75.31
28175;SHT30;59417;44.788;10.334;2023-06-10T12:48:25;23.77;74.84
28175;SHT30;59417;44.788;10.334;2023-06-10T12:50:56;23.91;73.65
28175;SHT30;59417;44.788;10.334;2023-06-10T12:53:23;23.88;72.47
28175;SHT30;59417;44.788;10.334;2023-06-10T12:55:49;23.90;73.67
28175;SHT30;59417;44.788;10.334;2023-06-10T12:58:15;24.00;71.29
28175;SHT30;59417;44.788;10.334;2023-06-10T13:00:42;24.05;71.94
28175;SHT30;59417;44.788;10.334;2023-06-10T13:03:09;24.01;71.59
28175;SHT30;59417;44.788;10.334;2023-06-10T13:05:36;24.04;70.49
28175;SHT30;59417;44.788;10.334;2023-06-10T13:08:06;24.12;70.05
28175;SHT30;59417;44.788;10.334;2023-06-10T13:10:33;24.06;70.89
28175;SHT30;59417;44.788;10.334;2023-06-10T13:13:02;24.08;72.18
28175;SHT30;59417;44.788;10.334;2023-06-10T13:15:34;24.01;70.74
28175;SHT30;59417;44.788;10.334;2023-06-10T13:18:03;24.00;70.65
28175;SHT30;59417;44.788;10.334;2023-06-10T13:20:29;23.95;70.50
28175;SHT30;59417;44.788;10.334;2023-06-10T13:22:55;24.06;71.31
28175;SHT30;59417;44.788;10.334;2023-06-10T13:25:22;24.25;70.78
28175;SHT30;59417;44.788;10.334;2023-06-10T13:27:48;24.25;70.84
28175;SHT30;59417;44.788;10.334;2023-06-10T13:30:14;24.24;70.67
28175;SHT30;59417;44.788;10.334;2023-06-10T13:32:40;24.29;70.42
28175;SHT30;59417;44.788;10.334;2023-06-10T13:35:07;24.26;69.57
28175;SHT30;59417;44.788;10.334;2023-06-10T13:37:33;24.32;70.13
28175;SHT30;59417;44.788;10.334;2023-06-10T13:40:01;24.53;69.01
28175;SHT30;59417;44.788;10.334;2023-06-10T13:42:27;24.77;68.64
28175;SHT30;59417;44.788;10.334;2023-06-10T13:44:58;24.94;69.29
28175;SHT30;59417;44.788;10.334;2023-06-10T13:47:25;24.79;69.35
28175;SHT30;59417;44.788;10.334;2023-06-10T13:49:51;24.97;68.70
28175;SHT30;59417;44.788;10.334;2023-06-10T13:52:17;24.83;69.11
28175;SHT30;59417;44.788;10.334;2023-06-10T13:54:43;24.96;69.63
28175;SHT30;59417;44.788;10.334;2023-06-10T13:57:09;25.14;70.15
28175;SHT30;59417;44.788;10.334;2023-06-10T13:59:36;25.21;69.34
28175;SHT30;59417;44.788;10.334;2023-06-10T14:02:03;25.26;69.93
28175;SHT30;59417;44.788;10.334;2023-06-10T14:04:29;25.11;69.39
28175;SHT30;59417;44.788;10.334;2023-06-10T14:06:55;25.00;69.78
28175;SHT30;59417;44.788;10.334;2023-06-10T14:09:21;25.02;69.29
28175;SHT30;59417;44.788;10.334;2023-06-10T14:11:47;25.06;68.59
28175;SHT30;59417;44.788;10.334;2023-06-10T14:14:13;25.07;68.42
28175;SHT30;59417;44.788;10.334;2023-06-10T14:16:40;25.10;68.11
28175;SHT30;59417;44.788;10.334;2023-06-10T14:19:07;25.26;69.10
28175;SHT30;59417;44.788;10.334;2023-06-10T14:21:33;25.35;68.22
28175;SHT30;59417;44.788;10.334;2023-06-10T14:23:59;25.28;67.49
28175;SHT30;59417;44.788;10.334;2023-06-10T14:26:24;25.41;69.50
28175;SHT30;59417;44.788;10.334;2023-06-10T14:28:52;25.55;70.91
28175;SHT30;59417;44.788;10.334;2023-06-10T14:31:17;25.47;70.85
28175;SHT30;59417;44.788;10.334;2023-06-10T14:33:43;25.47;70.33
28175;SHT30;59417;44.788;10.334;2023-06-10T14:36:10;25.53;69.63
28175;SHT30;59417;44.788;10.334;2023-06-10T14:38:36;25.64;70.47
28175;SHT30;59417;44.788;10.334;2023-06-10T14:41:02;25.67;69.81
28175;SHT30;59417;44.788;10.334;2023-06-10T14:43:28;25.67;70.26
28175;SHT30;59417;44.788;10.334;2023-06-10T14:45:53;25.48;69.97
28175;SHT30;59417;44.788;10.334;2023-06-10T14:48:21;25.65;71.47
28175;SHT30;59417;44.788;10.334;2023-06-10T14:50:47;25.55;69.40
28175;SHT30;59417;44.788;10.334;2023-06-10T14:53:19;25.77;69.39
28175;SHT30;59417;44.788;10.334;2023-06-10T14:55:45;25.79;68.08
28175;SHT30;59417;44.788;10.334;2023-06-10T14:58:11;25.86;68.52
28175;SHT30;59417;44.788;10.334;2023-06-10T15:00:37;26.00;67.40
28175;SHT30;59417;44.788;10.334;2023-06-10T15:03:03;25.90;66.61
28175;SHT30;59417;44.788;10.334;2023-06-10T15:05:29;25.85;66.87
28175;SHT30;59417;44.788;10.334;2023-06-10T15:07:55;25.99;67.56
28175;SHT30;59417;44.788;10.334;2023-06-10T15:10:21;26.08;67.07
28175;SHT30;59417;44.788;10.334;2023-06-10T15:12:47;26.13;65.59
28175;SHT30;59417;44.788;10.334;2023-06-10T15:15:13;26.16;66.25
28175;SHT30;59417;44.788;10.334;2023-06-10T15:17:39;26.16;64.93
28175;SHT30;59417;44.788;10.334;2023-06-10T15:20:05;25.95;63.91
28175;SHT30;59417;44.788;10.334;2023-06-10T15:22:32;26.22;65.54
28175;SHT30;59417;44.788;10.334;2023-06-10T15:24:57;26.12;63.50
28175;SHT30;59417;44.788;10.334;2023-06-10T15:27:23;26.29;64.11
28175;SHT30;59417;44.788;10.334;2023-06-10T15:29:49;26.35;63.22
28175;SHT30;59417;44.788;10.334;2023-06-10T15:32:15;26.36;62.53
28175;SHT30;59417;44.788;10.334;2023-06-10T15:34:41;26.54;62.89
28175;SHT30;59417;44.788;10.334;2023-06-10T15:37:07;26.46;61.56
28175;SHT30;59417;44.788;10.334;2023-06-10T15:39:33;26.44;62.30
28175;SHT30;59417;44.788;10.334;2023-06-10T15:41:59;26.33;61.96